sensor_id;sensor_type;location;lat;lon;timestamp;P1;durP1;ratioP1;P2;durP2;ratioP2
11100;SDS011;5604;50.722;7.078;2023-08-06T00:00:44;4.90;;;3.23;;
11100;SDS011;5604;50.722;7.078;2023-08-06T00:03:13;3.60;;;3.03;;
11100;SDS011;5604;50.722;7.078;2023-08-06T00:05:41;4.90;;;3.20;;
11100;SDS011;5604;50.722;7.078;2023-08-06T00:08:09;4.27;;;2.90;;
11100;SDS011;5604;50.722;7.078;2023-08-06T00:10:39;5.33;;;3.30;;
11100;SDS011;5604;50.722;7.078;2023-08-06T00:13:07;5.10;;;3.13;;
11100;SDS011;5604;50.722;7.078;2023-08-06T00:15:37;3.40;;;3.10;;
11100;SDS011;5604;50.722;7.078;2023-08-06T00:18:05;3.30;;;3.00;;
11100;SDS011;5604;50.722;7.078;2023-08-06T00:20:33;6.10;;;3.23;;
11100;SDS011;5604;50.722;7.078;2023-08-06T00:23:01;3.57;;;3.20;;
11100;SDS011;5604;50.722;7.078;2023-08-06T00:25:29;4.33;;;3.23;;
11100;SDS011;5604;50.722;7.078;2023-08-06T00:27:57;4.40;;;3.30;;
11100;SDS011;5604;50.722;7.078;2023-08-06T00:30:25;3.50;;;3.10;;
11100;SDS011;5604;50.722;7.078;2023-08-06T00:32:55;3.80;;;3.07;;
11100;SDS011;5604;50.722;7.078;2023-08-06T00:35:23;4.17;;;3.33;;
11100;SDS011;5604;50.722;7.078;2023-08-06T00:37:51;3.63;;;3.30;;
11100;SDS011;5604;50.722;7.078;2023-08-06T00:40:20;3.60;;;3.27;;
11100;SDS011;5604;50.722;7.078;2023-08-06T00:42:49;6.00;;;3.57;;
11100;SDS011;5604;50.722;7.078;2023-08-06T00:45:17;3.63;;;3.27;;
11100;SDS011;5604;50.722;7.078;2023-08-06T00:47:45;3.57;;;3.20;;
11100;SDS011;5604;50.722;7.078;2023-08-06T00:50:15;4.43;;;3.37;;
11100;SDS011;5604;50.722;7.078;2023-08-06T00:52:44;4.93;;;3.57;;
11100;SDS011;5604;50.722;7.078;2023-08-06T00:55:12;3.97;;;3.27;;
11100;SDS011;5604;50.722;7.078;2023-08-06T00:57:40;3.70;;;3.40;;
11100;SDS011;5604;50.722;7.078;2023-08-06T01:00:08;4.43;;;3.17;;
11100;SDS011;5604;50.722;7.078;2023-08-06T01:02:37;3.47;;;2.97;;
11100;SDS011;5604;50.722;7.078;2023-08-06T01:05:06;5.00;;;3.17;;
11100;SDS011;5604;50.722;7.078;2023-08-06T01:07:40;3.23;;;2.93;;
11100;SDS011;5604;50.722;7.078;2023-08-06T01:10:20;4.00;;;3.43;;
11100;SDS011;5604;50.722;7.078;2023-08-06T01:12:55;5.67;;;3.07;;
11100;SDS011;5604;50.722;7.078;2023-08-06T01:15:27;5.27;;;2.80;;
11100;SDS011;5604;50.722;7.078;2023-08-06T01:17:57;4.47;;;2.80;;
11100;SDS011;5604;50.722;7.078;2023-08-06T01:20:29;3.20;;;2.90;;
11100;SDS011;5604;50.722;7.078;2023-08-06T01:22:57;5.50;;;3.00;;
11100;SDS011;5604;50.722;7.078;2023-08-06T01:25:26;4.77;;;3.17;;
11100;SDS011;5604;50.722;7.078;2023-08-06T01:27:58;6.87;;;3.37;;
11100;SDS011;5604;50.722;7.078;2023-08-06T01:30:32;3.87;;;3.00;;
11100;SDS011;5604;50.722;7.078;2023-08-06T01:33:04;3.50;;;3.20;;
11100;SDS011;5604;50.722;7.078;2023-08-06T01:35:35;3.90;;;3.50;;
11100;SDS011;5604;50.722;7.078;2023-08-06T01:38:03;3.37;;;3.07;;
11100;SDS011;5604;50.722;7.078;2023-08-06T01:40:31;4.63;;;3.50;;
11100;SDS011;5604;50.722;7.078;2023-08-06T01:42:59;4.00;;;3.20;;
11100;SDS011;5604;50.722;7.078;2023-08-06T01:45:27;4.23;;;3.20;;
11100;SDS011;5604;50.722;7.078;2023-08-06T01:47:55;3.30;;;3.00;;
11100;SDS011;5604;50.722;7.078;2023-08-06T01:50:23;5.67;;;3.30;;
11100;SDS011;5604;50.722;7.078;2023-08-06T01:52:53;4.03;;;3.63;;
11100;SDS011;5604;50.722;7.078;2023-08-06T01:55:21;5.87;;;3.50;;
11100;SDS011;5604;50.722;7.078;2023-08-06T01:57:49;6.37;;;3.47;;
11100;SDS011;5604;50.722;7.078;2023-08-06T02:00:17;5.90;;;3.30;;
11100;SDS011;5604;50.722;7.078;2023-08-06T02:02:46;3.00;;;2.80;;
11100;SDS011;5604;50.722;7.078;2023-08-06T02:05:14;3.97;;;2.77;;
11100;SDS011;5604;50.722;7.078;2023-08-06T02:07:42;3.37;;;2.90;;
11100;SDS011;5604;50.722;7.078;2023-08-06T02:10:11;4.53;;;2.73;;
11100;SDS011;5604;50.722;7.078;2023-08-06T02:12:39;4.43;;;2.70;;
11100;SDS011;5604;50.722;7.078;2023-08-06T02:15:08;3.50;;;2.90;;
11100;SDS011;5604;50.722;7.078;2023-08-06T02:17:37;3.33;;;2.67;;
11100;SDS011;5604;50.722;7.078;2023-08-06T02:20:05;3.20;;;2.70;;
11100;SDS011;5604;50.722;7.078;2023-08-06T02:22:34;5.20;;;2.60;;
11100;SDS011;5604;50.722;7.078;2023-08-06T02:25:02;3.97;;;2.60;;
11100;SDS011;5604;50.722;7.078;2023-08-06T02:27:32;4.30;;;2.60;;
11100;SDS011;5604;50.722;7.078;2023-08-06T02:30:00;3.43;;;2.80;;
11100;SDS011;5604;50.722;7.078;2023-08-06T02:32:29;4.47;;;3.00;;
11100;SDS011;5604;50.722;7.078;2023-08-06T02:34:59;6.70;;;3.10;;
11100;SDS011;5604;50.722;7.078;2023-08-06T02:37:27;5.27;;;2.60;;
11100;SDS011;5604;50.722;7.078;2023-08-06T02:39:56;4.97;;;2.60;;
11100;SDS011;5604;50.722;7.078;2023-08-06T02:42:24;3.23;;;2.90;;
11100;SDS011;5604;50.722;7.078;2023-08-06T02:44:54;5.03;;;3.17;;
11100;SDS011;5604;50.722;7.078;2023-08-06T02:47:22;4.80;;;2.73;;
11100;SDS011;5604;50.722;7.078;2023-08-06T02:49:51;3.37;;;2.70;;
11100;SDS011;5604;50.722;7.078;2023-08-06T02:52:19;4.37;;;2.87;;
11100;SDS011;5604;50.722;7.078;2023-08-06T02:54:47;5.53;;;3.20;;
11100;SDS011;5604;50.722;7.078;2023-08-06T02:57:16;3.30;;;3.00;;
11100;SDS011;5604;50.722;7.078;2023-08-06T02:59:46;4.97;;;3.00;;
11100;SDS011;5604;50.722;7.078;2023-08-06T03:02:19;3.57;;;2.67;;
11100;SDS011;5604;50.722;7.078;2023-08-06T03:05:06;9.30;;;3.67;;
11100;SDS011;5604;50.722;7.078;2023-08-06T03:07:41;3.93;;;2.70;;
11100;SDS011;5604;50.722;7.078;2023-08-06T03:10:15;3.20;;;2.90;;
11100;SDS011;5604;50.722;7.078;2023-08-06T03:12:44;6.60;;;3.23;;
11100;SDS011;5604;50.722;7.078;2023-08-06T03:15:12;5.57;;;2.83;;
11100;SDS011;5604;50.722;7.078;2023-08-06T03:17:44;3.17;;;2.90;;
11100;SDS011;5604;50.722;7.078;2023-08-06T03:20:12;4.30;;;2.80;;
11100;SDS011;5604;50.722;7.078;2023-08-06T03:22:41;3.33;;;3.03;;
11100;SDS011;5604;50.722;7.078;2023-08-06T03:25:09;6.40;;;2.97;;
11100;SDS011;5604;50.722;7.078;2023-08-06T03:27:41;5.53;;;3.43;;
11100;SDS011;5604;50.722;7.078;2023-08-06T03:30:11;6.23;;;3.30;;
11100;SDS011;5604;50.722;7.078;2023-08-06T03:32:39;6.60;;;2.80;;
11100;SDS011;5604;50.722;7.078;2023-08-06T03:35:09;4.13;;;3.37;;
11100;SDS011;5604;50.722;7.078;2023-08-06T03:37:37;4.40;;;2.83;;
11100;SDS011;5604;50.722;7.078;2023-08-06T03:40:06;4.13;;;2.90;;
11100;SDS011;5604;50.722;7.078;2023-08-06T03:42:35;5.33;;;2.70;;
11100;SDS011;5604;50.722;7.078;2023-08-06T03:45:04;4.80;;;3.10;;
11100;SDS011;5604;50.722;7.078;2023-08-06T03:47:33;4.97;;;3.20;;
11100;SDS011;5604;50.722;7.078;2023-08-06T03:50:01;3.87;;;2.80;;
11100;SDS011;5604;50.722;7.078;2023-08-06T03:52:31;5.67;;;2.47;;
11100;SDS011;5604;50.722;7.078;2023-08-06T03:55:00;4.90;;;2.77;;
11100;SDS011;5604;50.722;7.078;2023-08-06T03:57:29;2.33;;;2.13;;
11100;SDS011;5604;50.722;7.078;2023-08-06T03:59:57;5.03;;;2.63;;
11100;SDS011;5604;50.722;7.078;2023-08-06T04:02:29;5.20;;;2.67;;
11100;SDS011;5604;50.722;7.078;2023-08-06T04:05:00;3.37;;;2.80;;
11100;SDS011;5604;50.722;7.078;2023-08-06T04:07:28;5.13;;;3.37;;
11100;SDS011;5604;50.722;7.078;2023-08-06T04:09:58;3.60;;;2.67;;
11100;SDS011;5604;50.722;7.078;2023-08-06T04:12:27;3.97;;;2.73;;
11100;SDS011;5604;50.722;7.078;2023-08-06T04:14:56;5.23;;;3.20;;
11100;SDS011;5604;50.722;7.078;2023-08-06T04:17:25;4.27;;;2.47;;
11100;SDS011;5604;50.722;7.078;2023-08-06T04:19:54;4.23;;;2.57;;
11100;SDS011;5604;50.722;7.078;2023-08-06T04:22:24;2.50;;;2.30;;
11100;SDS011;5604;50.722;7.078;2023-08-06T04:24:53;7.53;;;2.93;;
11100;SDS011;5604;50.722;7.078;2023-08-06T04:27:22;4.33;;;2.63;;
11100;SDS011;5604;50.722;7.078;2023-08-06T04:29:51;4.43;;;2.47;;
11100;SDS011;5604;50.722;7.078;2023-08-06T04:32:19;4.10;;;2.50;;
11100;SDS011;5604;50.722;7.078;2023-08-06T04:34:51;3.37;;;2.60;;
11100;SDS011;5604;50.722;7.078;2023-08-06T04:37:20;6.37;;;2.53;;
11100;SDS011;5604;50.722;7.078;2023-08-06T04:39:48;3.80;;;2.83;;
11100;SDS011;5604;50.722;7.078;2023-08-06T04:42:17;3.37;;;2.60;;
11100;SDS011;5604;50.722;7.078;2023-08-06T04:44:47;2.83;;;2.63;;
11100;SDS011;5604;50.722;7.078;2023-08-06T04:47:15;5.47;;;2.23;;
11100;SDS011;5604;50.722;7.078;2023-08-06T04:49:44;3.40;;;2.70;;
11100;SDS011;5604;50.722;7.078;2023-08-06T04:52:12;4.80;;;2.37;;
11100;SDS011;5604;50.722;7.078;2023-08-06T04:54:40;5.03;;;2.47;;
11100;SDS011;5604;50.722;7.078;2023-08-06T04:57:08;5.43;;;2.47;;
11100;SDS011;5604;50.722;7.078;2023-08-06T04:59:36;2.57;;;2.17;;
11100;SDS011;5604;50.722;7.078;2023-08-06T05:02:06;3.07;;;2.33;;
11100;SDS011;5604;50.722;7.078;2023-08-06T05:04:34;3.63;;;2.50;;
11100;SDS011;5604;50.722;7.078;2023-08-06T05:07:02;3.63;;;2.63;;
11100;SDS011;5604;50.722;7.078;2023-08-06T05:09:31;4.20;;;2.70;;
11100;SDS011;5604;50.722;7.078;2023-08-06T05:12:00;3.03;;;2.50;;
11100;SDS011;5604;50.722;7.078;2023-08-06T05:14:28;3.83;;;2.40;;
11100;SDS011;5604;50.722;7.078;2023-08-06T05:16:56;4.30;;;2.33;;
11100;SDS011;5604;50.722;7.078;2023-08-06T05:19:26;4.37;;;2.37;;
11100;SDS011;5604;50.722;7.078;2023-08-06T05:21:54;2.50;;;2.23;;
11100;SDS011;5604;50.722;7.078;2023-08-06T05:24:22;2.90;;;2.30;;
11100;SDS011;5604;50.722;7.078;2023-08-06T05:26:50;2.27;;;2.07;;
11100;SDS011;5604;50.722;7.078;2023-08-06T05:29:18;5.83;;;2.40;;
11100;SDS011;5604;50.722;7.078;2023-08-06T05:31:46;3.13;;;1.77;;
11100;SDS011;5604;50.722;7.078;2023-08-06T05:34:14;4.70;;;2.10;;
11100;SDS011;5604;50.722;7.078;2023-08-06T05:36:44;5.60;;;2.23;;
11100;SDS011;5604;50.722;7.078;2023-08-06T05:39:15;3.40;;;1.97;;
11100;SDS011;5604;50.722;7.078;2023-08-06T05:41:43;2.40;;;1.93;;
11100;SDS011;5604;50.722;7.078;2023-08-06T05:44:11;1.93;;;1.73;;
11100;SDS011;5604;50.722;7.078;2023-08-06T05:46:39;7.50;;;1.83;;
11100;SDS011;5604;50.722;7.078;2023-08-06T05:49:08;3.20;;;2.33;;
11100;SDS011;5604;50.722;7.078;2023-08-06T05:51:36;4.10;;;1.83;;
11100;SDS011;5604;50.722;7.078;2023-08-06T05:54:05;2.13;;;1.40;;
11100;SDS011;5604;50.722;7.078;2023-08-06T05:56:34;2.03;;;1.50;;
11100;SDS011;5604;50.722;7.078;2023-08-06T05:59:02;2.47;;;1.50;;
11100;SDS011;5604;50.722;7.078;2023-08-06T06:01:30;3.63;;;1.77;;
11100;SDS011;5604;50.722;7.078;2023-08-06T06:03:58;2.20;;;1.67;;
11100;SDS011;5604;50.722;7.078;2023-08-06T06:06:26;3.23;;;1.33;;
11100;SDS011;5604;50.722;7.078;2023-08-06T06:08:54;1.80;;;1.50;;
11100;SDS011;5604;50.722;7.078;2023-08-06T06:11:24;3.67;;;1.63;;
11100;SDS011;5604;50.722;7.078;2023-08-06T06:13:52;3.93;;;1.23;;
11100;SDS011;5604;50.722;7.078;2023-08-06T06:16:20;3.33;;;1.77;;
11100;SDS011;5604;50.722;7.078;2023-08-06T06:18:48;2.33;;;1.30;;
11100;SDS011;5604;50.722;7.078;2023-08-06T06:21:16;2.77;;;1.23;;
11100;SDS011;5604;50.722;7.078;2023-08-06T06:23:44;2.80;;;1.20;;
11100;SDS011;5604;50.722;7.078;2023-08-06T06:26:12;2.47;;;1.23;;
11100;SDS011;5604;50.722;7.078;2023-08-06T06:28:42;2.30;;;1.40;;
11100;SDS011;5604;50.722;7.078;2023-08-06T06:31:10;2.83;;;1.37;;
11100;SDS011;5604;50.722;7.078;2023-08-06T06:33:38;1.73;;;1.30;;
11100;SDS011;5604;50.722;7.078;2023-08-06T06:36:06;2.27;;;1.20;;
11100;SDS011;5604;50.722;7.078;2023-08-06T06:38:34;1.73;;;1.37;;
11100;SDS011;5604;50.722;7.078;2023-08-06T06:41:02;1.20;;;1.10;;
11100;SDS011;5604;50.722;7.078;2023-08-06T06:43:30;0.93;;;0.93;;
11100;SDS011;5604;50.722;7.078;2023-08-06T06:46:00;1.97;;;1.10;;
11100;SDS011;5604;50.722;7.078;2023-08-06T06:48:29;1.10;;;1.00;;
11100;SDS011;5604;50.722;7.078;2023-08-06T06:50:59;2.83;;;1.37;;
11100;SDS011;5604;50.722;7.078;2023-08-06T06:53:27;2.23;;;1.30;;
11100;SDS011;5604;50.722;7.078;2023-08-06T06:55:55;1.20;;;1.00;;
11100;SDS011;5604;50.722;7.078;2023-08-06T06:58:24;1.63;;;0.90;;
11100;SDS011;5604;50.722;7.078;2023-08-06T07:00:52;8.40;;;1.30;;
11100;SDS011;5604;50.722;7.078;2023-08-06T07:03:21;1.37;;;1.10;;
11100;SDS011;5604;50.722;7.078;2023-08-06T07:05:49;1.07;;;0.93;;
11100;SDS011;5604;50.722;7.078;2023-08-06T07:08:17;1.60;;;0.90;;
11100;SDS011;5604;50.722;7.078;2023-08-06T07:10:46;1.30;;;0.87;;
11100;SDS011;5604;50.722;7.078;2023-08-06T07:13:14;0.83;;;0.83;;
11100;SDS011;5604;50.722;7.078;2023-08-06T07:15:43;0.80;;;0.80;;
11100;SDS011;5604;50.722;7.078;2023-08-06T07:18:11;0.83;;;0.77;;
11100;SDS011;5604;50.722;7.078;2023-08-06T07:20:40;1.07;;;0.73;;
11100;SDS011;5604;50.722;7.078;2023-08-06T07:23:08;1.13;;;1.03;;
11100;SDS011;5604;50.722;7.078;2023-08-06T07:25:36;1.20;;;1.10;;
11100;SDS011;5604;50.722;7.078;2023-08-06T07:28:04;1.37;;;0.97;;
11100;SDS011;5604;50.722;7.078;2023-08-06T07:30:32;1.60;;;1.20;;
11100;SDS011;5604;50.722;7.078;2023-08-06T07:33:00;1.30;;;1.20;;
11100;SDS011;5604;50.722;7.078;2023-08-06T07:35:28;1.10;;;1.00;;
11100;SDS011;5604;50.722;7.078;2023-08-06T07:37:57;1.73;;;1.27;;
11100;SDS011;5604;50.722;7.078;2023-08-06T07:40:26;2.90;;;1.87;;
11100;SDS011;5604;50.722;7.078;2023-08-06T07:42:54;1.47;;;1.37;;
11100;SDS011;5604;50.722;7.078;2023-08-06T07:45:22;1.87;;;1.30;;
11100;SDS011;5604;50.722;7.078;2023-08-06T07:47:50;1.77;;;1.30;;
11100;SDS011;5604;50.722;7.078;2023-08-06T07:50:18;1.30;;;1.20;;
11100;SDS011;5604;50.722;7.078;2023-08-06T07:52:46;2.23;;;1.37;;
11100;SDS011;5604;50.722;7.078;2023-08-06T07:55:16;2.77;;;1.43;;
11100;SDS011;5604;50.722;7.078;2023-08-06T07:57:44;1.50;;;1.40;;
11100;SDS011;5604;50.722;7.078;2023-08-06T08:00:12;1.47;;;1.37;;
11100;SDS011;5604;50.722;7.078;2023-08-06T08:02:40;1.70;;;1.60;;
11100;SDS011;5604;50.722;7.078;2023-08-06T08:05:08;3.87;;;1.60;;
11100;SDS011;5604;50.722;7.078;2023-08-06T08:07:36;3.50;;;1.50;;
11100;SDS011;5604;50.722;7.078;2023-08-06T08:10:05;4.57;;;1.50;;
11100;SDS011;5604;50.722;7.078;2023-08-06T08:12:35;2.37;;;1.63;;
11100;SDS011;5604;50.722;7.078;2023-08-06T08:15:04;3.20;;;1.73;;
11100;SDS011;5604;50.722;7.078;2023-08-06T08:17:32;3.77;;;1.70;;
11100;SDS011;5604;50.722;7.078;2023-08-06T08:20:01;2.67;;;1.67;;
11100;SDS011;5604;50.722;7.078;2023-08-06T08:22:30;2.43;;;1.80;;
11100;SDS011;5604;50.722;7.078;2023-08-06T08:24:58;3.17;;;1.57;;
11100;SDS011;5604;50.722;7.078;2023-08-06T08:27:26;1.87;;;1.67;;
11100;SDS011;5604;50.722;7.078;2023-08-06T08:29:55;2.33;;;1.53;;
11100;SDS011;5604;50.722;7.078;2023-08-06T08:32:24;1.50;;;1.40;;
11100;SDS011;5604;50.722;7.078;2023-08-06T08:34:52;3.40;;;1.50;;
11100;SDS011;5604;50.722;7.078;2023-08-06T08:37:20;2.30;;;1.60;;
11100;SDS011;5604;50.722;7.078;2023-08-06T08:39:48;2.13;;;1.70;;
11100;SDS011;5604;50.722;7.078;2023-08-06T08:42:16;2.53;;;1.80;;
11100;SDS011;5604;50.722;7.078;2023-08-06T08:44:44;1.80;;;1.70;;
11100;SDS011;5604;50.722;7.078;2023-08-06T08:47:14;1.90;;;1.67;;
11100;SDS011;5604;50.722;7.078;2023-08-06T08:49:42;2.97;;;1.80;;
11100;SDS011;5604;50.722;7.078;2023-08-06T08:52:11;2.80;;;1.87;;
11100;SDS011;5604;50.722;7.078;2023-08-06T08:54:39;3.83;;;2.10;;
11100;SDS011;5604;50.722;7.078;2023-08-06T08:57:08;3.53;;;2.10;;
11100;SDS011;5604;50.722;7.078;2023-08-06T08:59:36;2.10;;;1.90;;
11100;SDS011;5604;50.722;7.078;2023-08-06T09:02:04;2.20;;;2.00;;
11100;SDS011;5604;50.722;7.078;2023-08-06T09:04:34;2.20;;;2.00;;
11100;SDS011;5604;50.722;7.078;2023-08-06T09:07:03;5.30;;;1.80;;
11100;SDS011;5604;50.722;7.078;2023-08-06T09:09:33;3.33;;;1.80;;
11100;SDS011;5604;50.722;7.078;2023-08-06T09:12:05;1.67;;;1.50;;
11100;SDS011;5604;50.722;7.078;2023-08-06T09:14:37;2.20;;;2.03;;
11100;SDS011;5604;50.722;7.078;2023-08-06T09:17:05;2.60;;;1.60;;
11100;SDS011;5604;50.722;7.078;2023-08-06T09:19:35;2.33;;;1.60;;
11100;SDS011;5604;50.722;7.078;2023-08-06T09:22:04;1.80;;;1.70;;
11100;SDS011;5604;50.722;7.078;2023-08-06T09:24:38;4.60;;;1.97;;
11100;SDS011;5604;50.722;7.078;2023-08-06T09:27:10;2.10;;;1.20;;
11100;SDS011;5604;50.722;7.078;2023-08-06T09:29:40;1.27;;;1.17;;
11100;SDS011;5604;50.722;7.078;2023-08-06T09:32:09;1.73;;;0.60;;
11100;SDS011;5604;50.722;7.078;2023-08-06T09:34:41;1.00;;;0.90;;
11100;SDS011;5604;50.722;7.078;2023-08-06T09:37:09;0.93;;;0.83;;
11100;SDS011;5604;50.722;7.078;2023-08-06T09:39:38;2.27;;;0.70;;
11100;SDS011;5604;50.722;7.078;2023-08-06T09:42:07;0.87;;;0.87;;
11100;SDS011;5604;50.722;7.078;2023-08-06T09:44:35;0.60;;;0.60;;
11100;SDS011;5604;50.722;7.078;2023-08-06T09:47:05;1.23;;;0.60;;
11100;SDS011;5604;50.722;7.078;2023-08-06T09:49:44;1.33;;;0.47;;
11100;SDS011;5604;50.722;7.078;2023-08-06T09:52:12;2.10;;;0.50;;
11100;SDS011;5604;50.722;7.078;2023-08-06T09:54:42;0.60;;;0.60;;
11100;SDS011;5604;50.722;7.078;2023-08-06T09:57:12;0.73;;;0.73;;
11100;SDS011;5604;50.722;7.078;2023-08-06T09:59:41;1.43;;;0.67;;
11100;SDS011;5604;50.722;7.078;2023-08-06T10:02:11;0.70;;;0.70;;
11100;SDS011;5604;50.722;7.078;2023-08-06T10:04:41;0.60;;;0.60;;
11100;SDS011;5604;50.722;7.078;2023-08-06T10:07:21;0.70;;;0.70;;
11100;SDS011;5604;50.722;7.078;2023-08-06T10:09:51;1.77;;;0.60;;
11100;SDS011;5604;50.722;7.078;2023-08-06T10:12:19;1.13;;;0.80;;
11100;SDS011;5604;50.722;7.078;2023-08-06T10:14:47;1.07;;;0.63;;
11100;SDS011;5604;50.722;7.078;2023-08-06T10:17:17;0.57;;;0.57;;
11100;SDS011;5604;50.722;7.078;2023-08-06T10:19:46;0.90;;;0.90;;
11100;SDS011;5604;50.722;7.078;2023-08-06T10:22:15;2.43;;;1.10;;
11100;SDS011;5604;50.722;7.078;2023-08-06T10:24:48;4.17;;;1.60;;
11100;SDS011;5604;50.722;7.078;2023-08-06T10:27:21;1.73;;;1.47;;
11100;SDS011;5604;50.722;7.078;2023-08-06T10:29:51;2.40;;;1.60;;
11100;SDS011;5604;50.722;7.078;2023-08-06T10:32:21;3.60;;;2.00;;
11100;SDS011;5604;50.722;7.078;2023-08-06T10:34:57;3.30;;;2.00;;
11100;SDS011;5604;50.722;7.078;2023-08-06T10:37:36;2.57;;;2.07;;
11100;SDS011;5604;50.722;7.078;2023-08-06T10:40:06;2.33;;;2.07;;
11100;SDS011;5604;50.722;7.078;2023-08-06T10:42:35;2.87;;;2.30;;
11100;SDS011;5604;50.722;7.078;2023-08-06T10:45:13;2.67;;;2.37;;
11100;SDS011;5604;50.722;7.078;2023-08-06T10:47:43;4.67;;;1.97;;
11100;SDS011;5604;50.722;7.078;2023-08-06T10:50:14;2.60;;;2.13;;
11100;SDS011;5604;50.722;7.078;2023-08-06T10:52:44;2.03;;;1.80;;
11100;SDS011;5604;50.722;7.078;2023-08-06T10:55:13;4.97;;;2.40;;
11100;SDS011;5604;50.722;7.078;2023-08-06T10:57:41;4.67;;;2.10;;
11100;SDS011;5604;50.722;7.078;2023-08-06T11:00:10;3.93;;;2.00;;
11100;SDS011;5604;50.722;7.078;2023-08-06T11:02:43;2.47;;;2.10;;
11100;SDS011;5604;50.722;7.078;2023-08-06T11:05:13;3.27;;;2.30;;
11100;SDS011;5604;50.722;7.078;2023-08-06T11:07:41;4.30;;;2.00;;
11100;SDS011;5604;50.722;7.078;2023-08-06T11:10:10;4.50;;;2.10;;
11100;SDS011;5604;50.722;7.078;2023-08-06T11:12:39;3.13;;;2.10;;
11100;SDS011;5604;50.722;7.078;2023-08-06T11:15:08;5.03;;;2.03;;
11100;SDS011;5604;50.722;7.078;2023-08-06T11:17:37;3.37;;;2.00;;
11100;SDS011;5604;50.722;7.078;2023-08-06T11:20:08;3.03;;;1.93;;
11100;SDS011;5604;50.722;7.078;2023-08-06T11:22:38;8.13;;;2.10;;
11100;SDS011;5604;50.722;7.078;2023-08-06T11:25:07;4.20;;;2.53;;
11100;SDS011;5604;50.722;7.078;2023-08-06T11:27:35;4.90;;;1.93;;
11100;SDS011;5604;50.722;7.078;2023-08-06T11:30:04;5.50;;;2.10;;
11100;SDS011;5604;50.722;7.078;2023-08-06T11:32:33;6.87;;;2.57;;
11100;SDS011;5604;50.722;7.078;2023-08-06T11:35:09;6.77;;;1.73;;
11100;SDS011;5604;50.722;7.078;2023-08-06T11:37:39;4.57;;;2.20;;
11100;SDS011;5604;50.722;7.078;2023-08-06T11:40:11;3.37;;;2.23;;
11100;SDS011;5604;50.722;7.078;2023-08-06T11:42:41;3.97;;;2.23;;
11100;SDS011;5604;50.722;7.078;2023-08-06T11:45:10;3.67;;;2.17;;
11100;SDS011;5604;50.722;7.078;2023-08-06T11:47:38;4.80;;;2.10;;
11100;SDS011;5604;50.722;7.078;2023-08-06T11:50:08;4.10;;;2.10;;
11100;SDS011;5604;50.722;7.078;2023-08-06T11:52:38;3.33;;;2.17;;
11100;SDS011;5604;50.722;7.078;2023-08-06T11:55:09;5.20;;;2.00;;
11100;SDS011;5604;50.722;7.078;2023-08-06T11:57:38;2.63;;;2.00;;
11100;SDS011;5604;50.722;7.078;2023-08-06T12:00:07;3.53;;;2.17;;
11100;SDS011;5604;50.722;7.078;2023-08-06T12:02:44;5.07;;;2.10;;
11100;SDS011;5604;50.722;7.078;2023-08-06T12:05:14;2.77;;;2.00;;
11100;SDS011;5604;50.722;7.078;2023-08-06T12:07:45;2.00;;;1.83;;
11100;SDS011;5604;50.722;7.078;2023-08-06T12:10:15;4.90;;;2.00;;
11100;SDS011;5604;50.722;7.078;2023-08-06T12:12:43;2.97;;;1.97;;
11100;SDS011;5604;50.722;7.078;2023-08-06T12:15:12;4.43;;;2.20;;
11100;SDS011;5604;50.722;7.078;2023-08-06T12:17:40;1.97;;;1.77;;
11100;SDS011;5604;50.722;7.078;2023-08-06T12:20:09;4.13;;;1.97;;
11100;SDS011;5604;50.722;7.078;2023-08-06T12:22:38;3.50;;;2.00;;
11100;SDS011;5604;50.722;7.078;2023-08-06T12:25:08;3.57;;;2.30;;
11100;SDS011;5604;50.722;7.078;2023-08-06T12:27:39;3.73;;;2.07;;
11100;SDS011;5604;50.722;7.078;2023-08-06T12:30:09;3.03;;;2.00;;
11100;SDS011;5604;50.722;7.078;2023-08-06T12:32:38;3.20;;;2.10;;
11100;SDS011;5604;50.722;7.078;2023-08-06T12:35:07;2.87;;;1.77;;
11100;SDS011;5604;50.722;7.078;2023-08-06T12:37:36;3.23;;;2.10;;
11100;SDS011;5604;50.722;7.078;2023-08-06T12:40:05;2.60;;;1.63;;
11100;SDS011;5604;50.722;7.078;2023-08-06T12:42:56;2.90;;;2.17;;
11100;SDS011;5604;50.722;7.078;2023-08-06T12:45:25;3.20;;;1.70;;
11100;SDS011;5604;50.722;7.078;2023-08-06T12:47:53;3.70;;;1.67;;
11100;SDS011;5604;50.722;7.078;2023-08-06T12:50:22;3.67;;;1.90;;
11100;SDS011;5604;50.722;7.078;2023-08-06T12:52:50;2.30;;;1.60;;
11100;SDS011;5604;50.722;7.078;2023-08-06T12:55:20;3.80;;;1.63;;
11100;SDS011;5604;50.722;7.078;2023-08-06T12:57:49;1.83;;;1.60;;
11100;SDS011;5604;50.722;7.078;2023-08-06T13:00:24;4.87;;;1.80;;
11100;SDS011;5604;50.722;7.078;2023-08-06T13:02:53;2.47;;;1.60;;
11100;SDS011;5604;50.722;7.078;2023-08-06T13:05:22;2.27;;;1.43;;
11100;SDS011;5604;50.722;7.078;2023-08-06T13:07:52;2.70;;;1.57;;
11100;SDS011;5604;50.722;7.078;2023-08-06T13:10:23;1.57;;;1.40;;
11100;SDS011;5604;50.722;7.078;2023-08-06T13:12:54;1.53;;;1.43;;
11100;SDS011;5604;50.722;7.078;2023-08-06T13:15:23;1.50;;;1.40;;
11100;SDS011;5604;50.722;7.078;2023-08-06T13:17:52;1.60;;;1.50;;
11100;SDS011;5604;50.722;7.078;2023-08-06T13:20:24;4.77;;;1.47;;
11100;SDS011;5604;50.722;7.078;2023-08-06T13:22:52;3.27;;;1.50;;
11100;SDS011;5604;50.722;7.078;2023-08-06T13:25:22;2.40;;;1.30;;
11100;SDS011;5604;50.722;7.078;2023-08-06T13:27:50;1.73;;;1.20;;
11100;SDS011;5604;50.722;7.078;2023-08-06T13:30:19;1.50;;;1.40;;
11100;SDS011;5604;50.722;7.078;2023-08-06T13:32:50;2.30;;;1.57;;
11100;SDS011;5604;50.722;7.078;2023-08-06T13:35:19;3.23;;;1.90;;
11100;SDS011;5604;50.722;7.078;2023-08-06T13:37:51;1.57;;;1.43;;
11100;SDS011;5604;50.722;7.078;2023-08-06T13:40:22;1.90;;;1.80;;
11100;SDS011;5604;50.722;7.078;2023-08-06T13:42:51;2.73;;;2.03;;
11100;SDS011;5604;50.722;7.078;2023-08-06T13:45:20;4.13;;;2.00;;
11100;SDS011;5604;50.722;7.078;2023-08-06T13:47:52;2.43;;;2.20;;
11100;SDS011;5604;50.722;7.078;2023-08-06T13:50:21;3.87;;;2.40;;
11100;SDS011;5604;50.722;7.078;2023-08-06T13:52:53;3.67;;;2.33;;
11100;SDS011;5604;50.722;7.078;2023-08-06T13:55:24;6.13;;;2.90;;
11100;SDS011;5604;50.722;7.078;2023-08-06T13:57:53;5.60;;;2.10;;
11100;SDS011;5604;50.722;7.078;2023-08-06T14:00:24;3.27;;;2.17;;
11100;SDS011;5604;50.722;7.078;2023-08-06T14:02:54;8.23;;;2.57;;
11100;SDS011;5604;50.722;7.078;2023-08-06T14:05:23;2.83;;;1.97;;
11100;SDS011;5604;50.722;7.078;2023-08-06T14:07:52;4.37;;;2.00;;
11100;SDS011;5604;50.722;7.078;2023-08-06T14:10:21;4.93;;;2.20;;
11100;SDS011;5604;50.722;7.078;2023-08-06T14:12:51;4.20;;;1.60;;
11100;SDS011;5604;50.722;7.078;2023-08-06T14:15:36;2.70;;;1.50;;
11100;SDS011;5604;50.722;7.078;2023-08-06T14:18:06;3.73;;;1.67;;
11100;SDS011;5604;50.722;7.078;2023-08-06T14:20:35;2.77;;;1.43;;
11100;SDS011;5604;50.722;7.078;2023-08-06T14:23:03;3.27;;;1.60;;
11100;SDS011;5604;50.722;7.078;2023-08-06T14:25:32;4.93;;;1.60;;
11100;SDS011;5604;50.722;7.078;2023-08-06T14:28:02;6.37;;;1.63;;
11100;SDS011;5604;50.722;7.078;2023-08-06T14:30:30;2.67;;;1.20;;
11100;SDS011;5604;50.722;7.078;2023-08-06T14:32:58;3.10;;;1.23;;
11100;SDS011;5604;50.722;7.078;2023-08-06T14:35:38;3.40;;;1.13;;
11100;SDS011;5604;50.722;7.078;2023-08-06T14:38:06;1.63;;;1.00;;
11100;SDS011;5604;50.722;7.078;2023-08-06T14:40:34;1.73;;;1.07;;
11100;SDS011;5604;50.722;7.078;2023-08-06T14:43:06;2.63;;;1.00;;
11100;SDS011;5604;50.722;7.078;2023-08-06T14:45:36;2.27;;;1.00;;
11100;SDS011;5604;50.722;7.078;2023-08-06T14:48:05;5.10;;;1.40;;
11100;SDS011;5604;50.722;7.078;2023-08-06T14:50:33;2.57;;;1.17;;
11100;SDS011;5604;50.722;7.078;2023-08-06T14:53:01;1.47;;;1.17;;
11100;SDS011;5604;50.722;7.078;2023-08-06T14:55:31;1.90;;;0.80;;
11100;SDS011;5604;50.722;7.078;2023-08-06T14:58:00;1.10;;;0.80;;
11100;SDS011;5604;50.722;7.078;2023-08-06T15:00:30;1.07;;;0.90;;
11100;SDS011;5604;50.722;7.078;2023-08-06T15:02:58;1.03;;;0.80;;
11100;SDS011;5604;50.722;7.078;2023-08-06T15:05:26;2.53;;;0.90;;
11100;SDS011;5604;50.722;7.078;2023-08-06T15:07:55;1.63;;;0.70;;
11100;SDS011;5604;50.722;7.078;2023-08-06T15:10:23;0.53;;;0.50;;
11100;SDS011;5604;50.722;7.078;2023-08-06T15:12:53;0.77;;;0.50;;